Time;durP1;ratioP1;P1;durP2;ratioP2;P2;SDS_P1;SDS_P2;PMS_P1;PMS_P2;Temp;Humidity;BMP_temperature;BMP_pressure;BME280_temperature;BME280_humidity;BME280_pressure;Samples;Min_cycle;Max_cycle;Signal;HPM_P1;HPM_P2
2021/12/01 00:00:21;;;;;;;1.17;1.17;;;2.80;99.90;;;;;;4987839;28;20192;-75
2021/12/01 00:02:52;;;;;;;2.20;2.10;;;2.80;99.90;;;;;;4985292;28;20208;-75
2021/12/01 00:05:20;;;;;;;1.67;1.67;;;2.80;99.90;;;;;;4991969;28;20175;-75
2021/12/01 00:07:45;;;;;;;1.43;1.43;;;2.90;99.90;;;;;;4995183;28;20206;-74
2021/12/01 00:10:12;;;;;;;1.50;1.50;;;2.80;99.90;;;;;;4991696;28;20193;-74
2021/12/01 00:12:37;;;;;;;2.03;1.93;;;2.90;99.90;;;;;;4986664;28;20194;-74
2021/12/01 00:15:05;;;;;;;1.70;1.70;;;2.90;99.90;;;;;;4995517;28;20186;-74
2021/12/01 00:17:31;;;;;;;1.07;1.07;;;2.90;99.90;;;;;;4990835;28;20700;-74
2021/12/01 00:19:56;;;;;;;1.47;1.47;;;2.80;99.90;;;;;;4983802;28;20201;-74
2021/12/01 00:22:22;;;;;;;1.00;1.00;;;2.90;99.90;;;;;;4978351;28;20210;-74
2021/12/01 00:24:48;;;;;;;0.90;0.90;;;3.00;99.90;;;;;;4992342;28;20200;-74
2021/12/01 00:27:13;;;;;;;0.90;0.90;;;3.00;99.90;;;;;;4990818;28;20202;-74
2021/12/01 00:29:39;;;;;;;1.60;1.60;;;3.00;99.90;;;;;;4993431;28;20205;-74
2021/12/01 00:32:05;;;;;;;1.30;1.30;;;2.90;99.90;;;;;;4997089;28;20186;-75
2021/12/01 00:34:33;;;;;;;1.10;1.10;;;2.90;99.90;;;;;;4992526;28;20248;-75
2021/12/01 00:36:59;;;;;;;1.40;1.40;;;2.90;99.90;;;;;;4987394;28;20296;-74
2021/12/01 00:39:24;;;;;;;1.53;1.53;;;2.90;99.90;;;;;;4994573;28;20722;-74
2021/12/01 00:41:51;;;;;;;1.00;1.00;;;2.90;99.90;;;;;;4965513;28;20187;-75
2021/12/01 00:44:17;;;;;;;1.30;1.30;;;2.90;99.90;;;;;;4993125;28;20209;-74
2021/12/01 00:49:27;;;;;;;1.23;1.23;;;2.90;99.90;;;;;;4987453;28;20584;-74
2021/12/01 00:51:52;;;;;;;1.30;1.30;;;2.90;99.90;;;;;;4987891;28;20199;-74
2021/12/01 00:54:18;;;;;;;1.10;1.10;;;2.90;99.90;;;;;;4990975;28;20272;-73
2021/12/01 00:56:44;;;;;;;1.43;1.43;;;2.90;99.90;;;;;;4988708;28;20213;-73
2021/12/01 00:59:11;;;;;;;1.40;1.40;;;2.90;99.90;;;;;;4992584;28;20186;-74
2021/12/01 01:01:36;;;;;;;1.30;1.30;;;3.00;99.90;;;;;;4989865;28;20194;-73
2021/12/01 01:04:03;;;;;;;1.80;1.70;;;3.00;99.90;;;;;;4991171;28;20248;-73
2021/12/01 01:06:28;;;;;;;1.63;1.63;;;3.00;99.90;;;;;;4991238;28;20206;-74
2021/12/01 01:08:54;;;;;;;1.60;1.60;;;2.90;99.90;;;;;;4992781;28;20181;-73
2021/12/01 01:16:50;;;;;;;2.10;2.00;;;3.00;99.90;;;;;;4985045;28;20247;-74
2021/12/01 01:19:18;;;;;;;1.50;1.50;;;3.00;99.90;;;;;;4990959;28;20197;-75
2021/12/01 01:21:49;;;;;;;2.33;2.23;;;3.00;99.90;;;;;;4989625;28;20320;-74
2021/12/01 01:24:15;;;;;;;2.40;2.30;;;3.00;99.90;;;;;;4987793;28;20738;-74
2021/12/01 01:26:41;;;;;;;1.73;1.67;;;2.90;99.90;;;;;;4989113;28;20599;-75
2021/12/01 01:29:07;;;;;;;2.60;2.50;;;2.90;99.90;;;;;;4995120;28;20178;-74
2021/12/01 01:31:33;;;;;;;1.93;1.93;;;3.00;99.90;;;;;;4993371;28;20194;-74
2021/12/01 01:34:00;;;;;;;2.43;2.23;;;3.00;99.90;;;;;;4985653;28;20293;-74
2021/12/01 01:36:27;;;;;;;2.23;2.13;;;3.00;99.90;;;;;;4992126;28;20256;-74
2021/12/01 01:38:53;;;;;;;3.27;3.07;;;3.10;99.90;;;;;;4986796;28;20186;-75
2021/12/01 01:41:19;;;;;;;3.20;3.00;;;3.10;99.90;;;;;;4989410;28;20244;-74
2021/12/01 01:43:46;;;;;;;2.60;2.50;;;3.10;99.90;;;;;;4975273;28;20218;-74
2021/12/01 01:46:13;;;;;;;3.30;3.10;;;3.10;99.90;;;;;;4992561;28;20213;-74
2021/12/01 01:48:53;;;;;;;3.50;3.20;;;3.10;99.90;;;;;;4973049;28;20205;-74
2021/12/01 01:51:22;;;;;;;3.67;3.43;;;3.10;99.90;;;;;;4984710;28;20185;-74
2021/12/01 01:53:51;;;;;;;2.63;2.53;;;3.10;99.90;;;;;;4991664;28;20183;-73
2021/12/01 01:56:17;;;;;;;4.13;3.57;;;3.10;99.90;;;;;;4987175;28;20676;-74
2021/12/01 01:58:43;;;;;;;2.77;2.67;;;3.10;99.90;;;;;;4990537;28;20182;-74
2021/12/01 02:01:16;;;;;;;2.33;2.23;;;3.10;99.90;;;;;;4993647;28;20533;-73
2021/12/01 02:03:45;;;;;;;2.80;2.60;;;3.10;99.90;;;;;;4987294;28;20205;-73
2021/12/01 02:06:13;;;;;;;3.60;3.40;;;3.20;99.90;;;;;;4984517;28;20232;-73
2021/12/01 02:08:40;;;;;;;2.27;2.17;;;3.20;99.90;;;;;;4989751;28;20696;-73
2021/12/01 02:11:11;;;;;;;3.27;3.17;;;3.20;99.90;;;;;;4974113;28;20174;-73
2021/12/01 02:13:38;;;;;;;3.07;2.87;;;3.20;99.90;;;;;;4989370;28;20231;-73
2021/12/01 02:16:04;;;;;;;3.50;3.30;;;3.10;99.90;;;;;;4988005;28;20690;-74
2021/12/01 02:18:30;;;;;;;2.40;2.27;;;3.10;99.90;;;;;;4985244;28;20190;-74
2021/12/01 02:21:01;;;;;;;2.70;2.60;;;3.20;99.90;;;;;;4985138;28;20225;-73
2021/12/01 02:23:27;;;;;;;4.70;4.27;;;3.10;99.90;;;;;;4963525;28;20221;-73
2021/12/01 02:25:53;;;;;;;3.40;3.20;;;3.10;99.90;;;;;;4978849;28;20206;-73
2021/12/01 02:28:19;;;;;;;4.60;4.30;;;3.20;99.90;;;;;;4981875;28;20554;-73
2021/12/01 02:30:45;;;;;;;2.50;2.40;;;3.20;99.90;;;;;;4985606;28;20201;-73
2021/12/01 02:33:10;;;;;;;3.43;3.23;;;3.30;99.90;;;;;;4987728;28;20261;-73
2021/12/01 02:35:36;;;;;;;3.33;3.13;;;3.30;99.90;;;;;;4988609;28;20257;-73
2021/12/01 02:38:04;;;;;;;4.63;4.33;;;3.30;99.90;;;;;;4988221;28;20186;-73
2021/12/01 02:40:30;;;;;;;3.87;3.67;;;3.20;99.90;;;;;;4979777;28;20193;-73
2021/12/01 02:42:56;;;;;;;4.23;3.93;;;3.10;99.90;;;;;;4977797;28;20213;-73
2021/12/01 02:45:22;;;;;;;3.90;3.70;;;3.20;99.90;;;;;;4978024;28;20187;-73
2021/12/01 02:47:47;;;;;;;4.70;4.40;;;3.30;99.90;;;;;;4978878;28;20213;-74
2021/12/01 02:50:13;;;;;;;3.20;3.00;;;3.20;99.90;;;;;;4978213;28;20668;-73
2021/12/01 02:52:39;;;;;;;3.07;2.80;;;3.30;99.90;;;;;;4978003;28;20201;-73
2021/12/01 02:55:07;;;;;;;3.23;3.00;;;3.30;99.90;;;;;;4978074;28;20649;-73
2021/12/01 02:57:53;;;;;;;3.70;3.50;;;3.40;99.90;;;;;;4987769;28;20209;-73
2021/12/01 03:00:21;;;;;;;3.23;3.07;;;3.50;99.90;;;;;;4988434;28;20190;-73
2021/12/01 03:02:47;;;;;;;4.63;4.33;;;3.40;99.90;;;;;;4982068;28;20213;-73
2021/12/01 03:05:15;;;;;;;2.87;2.77;;;3.50;99.90;;;;;;4991828;28;20181;-73
2021/12/01 03:07:42;;;;;;;4.60;4.20;;;3.40;99.90;;;;;;4986867;28;20209;-73
2021/12/01 03:10:09;;;;;;;3.40;3.13;;;3.50;99.90;;;;;;4990075;28;20561;-73
2021/12/01 03:12:37;;;;;;;4.57;4.27;;;3.40;99.90;;;;;;4989083;28;20592;-73
2021/12/01 03:15:03;;;;;;;4.33;4.07;;;3.40;99.90;;;;;;4988570;28;20647;-73
2021/12/01 03:17:31;;;;;;;3.47;3.27;;;3.40;99.90;;;;;;4979746;28;20669;-73
2021/12/01 03:19:58;;;;;;;3.63;3.50;;;3.40;99.90;;;;;;4990247;28;20565;-73
2021/12/01 03:22:24;;;;;;;3.70;3.40;;;3.50;99.90;;;;;;4973599;28;20209;-73
2021/12/01 03:24:51;;;;;;;2.93;2.73;;;3.50;99.90;;;;;;4987471;28;20522;-72
2021/12/01 03:27:17;;;;;;;4.13;3.93;;;3.60;99.90;;;;;;4983467;28;20648;-72
2021/12/01 03:29:48;;;;;;;3.57;3.37;;;3.60;99.90;;;;;;4988639;28;20253;-72
2021/12/01 03:32:15;;;;;;;2.53;2.43;;;3.70;99.90;;;;;;4990953;28;20228;-72
2021/12/01 03:34:42;;;;;;;2.70;2.53;;;3.60;99.90;;;;;;4985851;28;20209;-72
2021/12/01 03:37:09;;;;;;;2.50;2.40;;;3.70;99.90;;;;;;4991540;28;20578;-71
2021/12/01 03:39:35;;;;;;;2.97;2.87;;;3.70;99.90;;;;;;4989037;28;20257;-72
2021/12/01 03:42:01;;;;;;;2.07;2.03;;;3.80;99.90;;;;;;4993397;28;20181;-72
2021/12/01 03:44:27;;;;;;;2.10;2.00;;;3.80;99.90;;;;;;4988397;28;20699;-72
2021/12/01 03:46:53;;;;;;;2.90;2.33;;;3.90;99.90;;;;;;4996231;28;20208;-72
2021/12/01 03:49:19;;;;;;;3.17;2.87;;;3.90;99.90;;;;;;4990646;28;20196;-72
2021/12/01 03:51:44;;;;;;;2.47;2.37;;;3.90;99.90;;;;;;4987311;28;20205;-72
2021/12/01 03:54:10;;;;;;;2.20;2.10;;;3.90;99.90;;;;;;4996824;28;20189;-72
2021/12/01 03:56:36;;;;;;;2.93;2.83;;;3.90;99.90;;;;;;4991013;28;20221;-72
2021/12/01 03:59:03;;;;;;;2.67;2.57;;;4.00;99.90;;;;;;4989697;28;20278;-71
2021/12/01 04:01:29;;;;;;;2.83;2.73;;;3.90;99.90;;;;;;4991988;28;20190;-72
2021/12/01 04:03:54;;;;;;;2.50;2.40;;;3.90;99.90;;;;;;4990265;28;20245;-72
2021/12/01 04:06:20;;;;;;;2.53;2.43;;;3.90;99.90;;;;;;4995954;28;20197;-72
2021/12/01 04:08:46;;;;;;;3.33;3.03;;;3.90;99.90;;;;;;4991499;28;20264;-73
2021/12/01 04:11:12;;;;;;;2.57;2.47;;;3.90;99.90;;;;;;4994761;28;20202;-72
2021/12/01 04:13:38;;;;;;;2.73;2.63;;;3.90;99.90;;;;;;4992329;28;20196;-73
2021/12/01 04:16:04;;;;;;;3.90;3.70;;;3.90;99.90;;;;;;4996734;28;20300;-73
2021/12/01 04:18:29;;;;;;;3.17;2.97;;;3.90;99.90;;;;;;4992910;28;20203;-73
2021/12/01 04:20:55;;;;;;;2.70;2.50;;;3.90;99.90;;;;;;4995286;28;20296;-72
2021/12/01 04:23:21;;;;;;;1.97;1.97;;;3.80;99.90;;;;;;4993085;28;20252;-72
2021/12/01 04:25:46;;;;;;;2.80;2.60;;;3.90;99.90;;;;;;4985841;28;20210;-71
2021/12/01 04:28:12;;;;;;;2.67;2.57;;;3.90;99.90;;;;;;4993091;28;20180;-72
2021/12/01 04:30:38;;;;;;;2.27;2.17;;;4.00;99.90;;;;;;4992544;28;20441;-72
2021/12/01 04:33:04;;;;;;;2.80;2.70;;;3.90;99.90;;;;;;4999504;28;20548;-72
2021/12/01 04:35:30;;;;;;;2.00;1.90;;;3.80;99.90;;;;;;4986090;28;20183;-72
2021/12/01 04:37:56;;;;;;;2.40;2.20;;;3.90;99.90;;;;;;4988534;28;20679;-72
2021/12/01 04:40:24;;;;;;;2.97;2.77;;;3.90;99.90;;;;;;4995131;28;20356;-72
2021/12/01 04:42:50;;;;;;;2.27;2.10;;;3.90;99.90;;;;;;4989860;28;20211;-72
2021/12/01 04:45:18;;;;;;;2.60;2.50;;;3.90;99.90;;;;;;4986775;28;20700;-72
2021/12/01 04:47:50;;;;;;;1.87;1.77;;;3.90;99.90;;;;;;4990983;28;20276;-72
2021/12/01 04:50:18;;;;;;;2.50;2.40;;;3.90;99.90;;;;;;4995056;28;20177;-73
2021/12/01 04:52:44;;;;;;;2.03;1.93;;;3.90;99.90;;;;;;4986013;28;20189;-72
2021/12/01 04:55:11;;;;;;;2.87;2.50;;;3.80;99.90;;;;;;4988613;28;20198;-73
2021/12/01 04:57:45;;;;;;;2.90;2.70;;;3.80;99.90;;;;;;4990823;28;20245;-72
2021/12/01 05:00:14;;;;;;;3.10;2.90;;;3.80;99.90;;;;;;4985531;28;20186;-72
2021/12/01 05:02:40;;;;;;;3.00;2.70;;;3.90;99.90;;;;;;4991427;28;20259;-72
2021/12/01 05:05:06;;;;;;;2.80;2.70;;;3.80;99.90;;;;;;4991427;28;20194;-72
2021/12/01 05:07:32;;;;;;;1.70;1.57;;;3.80;99.90;;;;;;4991427;28;20205;-71
2021/12/01 05:09:58;;;;;;;2.50;2.40;;;3.80;99.90;;;;;;4995955;28;20218;-72
2021/12/01 05:12:24;;;;;;;2.50;2.40;;;3.90;99.90;;;;;;4976418;28;20217;-71
2021/12/01 05:14:50;;;;;;;2.80;2.63;;;3.80;99.90;;;;;;4994127;28;20193;-71
2021/12/01 05:17:17;;;;;;;2.57;2.47;;;3.90;99.90;;;;;;4996984;28;20201;-71
2021/12/01 05:19:43;;;;;;;2.03;1.93;;;3.80;99.90;;;;;;4992975;28;20194;-71
2021/12/01 05:22:09;;;;;;;2.70;2.50;;;3.90;99.90;;;;;;4993380;28;20200;-72
2021/12/01 05:24:35;;;;;;;1.70;1.60;;;3.90;99.90;;;;;;4994846;28;20197;-71
2021/12/01 05:27:00;;;;;;;2.40;2.23;;;3.90;99.90;;;;;;4992465;28;20570;-72
2021/12/01 05:29:26;;;;;;;1.43;1.33;;;4.00;99.90;;;;;;4993041;28;20216;-71
2021/12/01 05:31:54;;;;;;;2.43;2.23;;;4.00;99.90;;;;;;4986032;28;20212;-72
2021/12/01 05:34:19;;;;;;;2.67;2.50;;;4.00;99.90;;;;;;4997840;28;20721;-73
2021/12/01 05:36:45;;;;;;;2.37;2.27;;;4.00;99.90;;;;;;4992795;28;20222;-72
2021/12/01 05:39:11;;;;;;;4.37;2.90;;;4.00;99.90;;;;;;4995938;28;20671;-72
2021/12/01 05:41:36;;;;;;;2.43;2.33;;;4.00;99.90;;;;;;4991014;28;20735;-72
2021/12/01 05:44:02;;;;;;;2.30;2.20;;;4.00;99.90;;;;;;4991771;28;20206;-72
2021/12/01 05:46:28;;;;;;;2.97;2.77;;;4.10;99.90;;;;;;4991758;28;20293;-73
2021/12/01 05:48:55;;;;;;;2.30;2.10;;;4.10;99.90;;;;;;4980530;28;20186;-72
2021/12/01 05:51:21;;;;;;;2.80;2.60;;;4.10;99.90;;;;;;4980813;28;20197;-72
2021/12/01 05:53:48;;;;;;;2.33;2.23;;;4.20;99.90;;;;;;4983930;28;20285;-72
2021/12/01 05:56:14;;;;;;;2.77;2.67;;;4.20;99.90;;;;;;4980548;28;20233;-72
2021/12/01 05:58:39;;;;;;;3.40;3.20;;;4.20;99.90;;;;;;4982864;28;20691;-72
2021/12/01 06:01:05;;;;;;;3.43;3.23;;;4.30;99.90;;;;;;4984003;28;20209;-72
2021/12/01 06:03:31;;;;;;;3.30;3.10;;;4.20;99.90;;;;;;4982366;28;20685;-73
2021/12/01 06:05:57;;;;;;;2.93;2.83;;;4.10;99.90;;;;;;4979855;28;20189;-72
2021/12/01 06:08:22;;;;;;;3.17;2.97;;;4.10;99.90;;;;;;4984668;28;20182;-72
2021/12/01 06:10:48;;;;;;;2.20;2.10;;;4.10;99.90;;;;;;4986127;28;20190;-72
2021/12/01 06:13:17;;;;;;;2.53;2.43;;;4.20;99.90;;;;;;4988510;28;20174;-72
2021/12/01 06:15:44;;;;;;;3.30;3.10;;;4.20;99.90;;;;;;4984314;28;20205;-72
2021/12/01 06:18:10;;;;;;;2.97;2.80;;;4.20;99.90;;;;;;4986594;28;20183;-73
2021/12/01 06:20:36;;;;;;;1.67;1.57;;;4.20;99.90;;;;;;4993431;28;20621;-71
2021/12/01 06:23:02;;;;;;;2.70;2.50;;;4.30;99.90;;;;;;4991723;28;20206;-72
2021/12/01 06:25:28;;;;;;;2.63;2.43;;;4.40;99.90;;;;;;4994913;28;20178;-72
2021/12/01 06:27:55;;;;;;;2.50;2.40;;;4.40;99.90;;;;;;4989059;28;20185;-73
2021/12/01 06:30:22;;;;;;;2.80;2.60;;;4.40;99.90;;;;;;4995570;28;20316;-73
2021/12/01 06:32:48;;;;;;;2.53;2.43;;;4.40;99.90;;;;;;4991918;28;20189;-73
2021/12/01 06:35:14;;;;;;;3.13;3.00;;;4.40;99.90;;;;;;4991893;28;20174;-72
2021/12/01 06:37:40;;;;;;;1.87;1.83;;;4.40;99.90;;;;;;4986707;28;20220;-73
2021/12/01 06:40:07;;;;;;;1.70;1.70;;;4.40;99.90;;;;;;4994461;28;20189;-72
2021/12/01 06:42:35;;;;;;;3.17;2.77;;;4.50;99.90;;;;;;4989275;28;20281;-72
2021/12/01 06:45:02;;;;;;;2.43;2.30;;;4.50;99.90;;;;;;4986676;28;20178;-72
2021/12/01 06:47:27;;;;;;;2.80;2.70;;;4.50;99.90;;;;;;4987245;28;20202;-73
2021/12/01 06:49:53;;;;;;;2.30;2.20;;;4.50;99.90;;;;;;4986755;28;20193;-72
2021/12/01 06:52:19;;;;;;;2.60;2.50;;;4.50;99.90;;;;;;4991957;28;20169;-72
2021/12/01 06:54:44;;;;;;;2.80;2.60;;;4.40;99.90;;;;;;4987942;28;20185;-72
2021/12/01 06:57:10;;;;;;;2.80;2.70;;;4.30;99.90;;;;;;4990302;28;20704;-71
2021/12/01 06:59:36;;;;;;;2.67;2.57;;;4.40;99.90;;;;;;4993251;28;20181;-71
2021/12/01 07:02:02;;;;;;;2.47;2.37;;;4.40;99.90;;;;;;4993118;28;20201;-72
2021/12/01 07:04:29;;;;;;;2.90;2.80;;;4.40;99.90;;;;;;4991690;28;20197;-73
2021/12/01 07:06:55;;;;;;;2.50;2.33;;;4.40;99.90;;;;;;4992594;28;20288;-72
2021/12/01 07:09:23;;;;;;;2.43;2.33;;;4.40;99.90;;;;;;4991676;28;20253;-72
2021/12/01 07:11:49;;;;;;;2.23;2.10;;;4.30;99.90;;;;;;4988684;28;20539;-73
2021/12/01 07:14:14;;;;;;;2.03;1.93;;;4.40;99.90;;;;;;4996061;28;20189;-73
2021/12/01 07:16:41;;;;;;;2.83;2.63;;;4.40;99.90;;;;;;4996181;28;20280;-73
2021/12/01 07:19:06;;;;;;;2.70;2.50;;;4.30;99.90;;;;;;4993657;28;20722;-74
2021/12/01 07:21:32;;;;;;;2.50;2.30;;;4.30;99.90;;;;;;4979203;28;20288;-73
2021/12/01 07:23:58;;;;;;;1.40;1.27;;;4.30;99.90;;;;;;4995762;28;20248;-73
2021/12/01 07:26:24;;;;;;;3.07;2.80;;;4.30;99.90;;;;;;4997724;28;20197;-73
2021/12/01 07:28:49;;;;;;;3.17;2.60;;;4.30;99.90;;;;;;4991634;28;20183;-72
2021/12/01 07:31:17;;;;;;;2.80;2.60;;;4.20;99.90;;;;;;4984851;28;20178;-73
2021/12/01 07:33:42;;;;;;;3.07;2.80;;;4.20;99.90;;;;;;4988706;28;20213;-72
2021/12/01 07:36:08;;;;;;;2.37;2.27;;;4.20;99.90;;;;;;4992767;28;20749;-72
2021/12/01 07:38:34;;;;;;;2.70;2.50;;;4.20;99.90;;;;;;4989380;28;20182;-72
2021/12/01 07:41:00;;;;;;;2.43;2.30;;;4.30;99.90;;;;;;4991230;28;20182;-72
2021/12/01 07:43:25;;;;;;;2.30;2.10;;;4.40;99.90;;;;;;4988191;28;20264;-72
2021/12/01 07:45:51;;;;;;;2.63;2.50;;;4.50;99.90;;;;;;4991106;28;20260;-72
2021/12/01 07:48:17;;;;;;;2.83;1.70;;;4.50;99.90;;;;;;4987554;28;20174;-72
2021/12/01 07:50:42;;;;;;;2.37;2.20;;;4.50;99.90;;;;;;4984831;28;20241;-72
2021/12/01 07:53:09;;;;;;;2.53;2.33;;;4.60;99.90;;;;;;4990490;28;20652;-72
2021/12/01 07:55:34;;;;;;;2.20;2.00;;;4.60;99.90;;;;;;4990976;28;20177;-72
2021/12/01 07:58:00;;;;;;;2.25;2.15;;;4.60;99.90;;;;;;4990515;28;20192;-71
2021/12/01 08:00:27;;;;;;;2.47;2.13;;;4.80;99.90;;;;;;4984905;28;20186;-71
2021/12/01 08:02:53;;;;;;;2.15;2.05;;;4.80;99.90;;;;;;4990341;28;20213;-72
2021/12/01 08:05:18;;;;;;;1.85;1.70;;;4.90;99.90;;;;;;4991697;28;20216;-72
2021/12/01 08:07:44;;;;;;;2.40;2.20;;;4.90;99.90;;;;;;4992351;28;20629;-72
2021/12/01 08:10:10;;;;;;;2.63;2.42;;;4.90;99.90;;;;;;4986992;28;20237;-72
2021/12/01 08:12:38;;;;;;;2.88;2.58;;;4.90;99.90;;;;;;4989929;28;20183;-72
2021/12/01 08:15:06;;;;;;;1.98;1.83;;;4.90;99.90;;;;;;4993807;28;20188;-72
2021/12/01 08:17:32;;;;;;;2.27;1.93;;;4.90;99.90;;;;;;4999398;28;20688;-72
2021/12/01 08:19:58;;;;;;;2.47;2.38;;;5.00;99.90;;;;;;4985529;28;20335;-74
2021/12/01 08:22:28;;;;;;;3.10;2.70;;;5.10;99.90;;;;;;4995697;28;20211;-73
2021/12/01 08:24:54;;;;;;;3.03;2.73;;;5.00;99.90;;;;;;4989343;28;20668;-73
2021/12/01 08:27:21;;;;;;;2.25;2.03;;;5.00;99.90;;;;;;4999169;28;20641;-73
2021/12/01 08:29:47;;;;;;;3.35;2.45;;;5.20;99.90;;;;;;4990625;28;20217;-72
2021/12/01 08:32:13;;;;;;;3.05;2.85;;;5.20;99.90;;;;;;4990145;28;20535;-73
2021/12/01 08:34:39;;;;;;;3.25;3.05;;;5.40;99.90;;;;;;4984776;28;20183;-72
2021/12/01 08:37:08;;;;;;;6.20;5.65;;;5.40;99.90;;;;;;4995400;28;20457;-73
2021/12/01 08:39:34;;;;;;;6.25;5.75;;;5.60;99.90;;;;;;4983738;28;20178;-72
2021/12/01 08:42:00;;;;;;;2.60;2.40;;;5.60;99.90;;;;;;4987334;28;20526;-71
2021/12/01 08:44:25;;;;;;;4.53;4.10;;;5.70;99.90;;;;;;4989480;28;20202;-71
2021/12/01 08:46:51;;;;;;;6.18;5.63;;;5.80;99.90;;;;;;4972039;28;20584;-71
2021/12/01 08:49:17;;;;;;;5.47;5.00;;;5.80;99.90;;;;;;4995835;28;20167;-73
2021/12/01 08:51:42;;;;;;;3.88;3.30;;;5.80;99.90;;;;;;4987507;28;20269;-71
2021/12/01 08:54:13;;;;;;;2.17;2.08;;;5.90;99.90;;;;;;4985995;28;20290;-71
2021/12/01 08:56:40;;;;;;;3.38;2.75;;;5.90;99.90;;;;;;4984221;28;20273;-71
2021/12/01 08:59:05;;;;;;;2.97;2.58;;;6.00;99.90;;;;;;4982279;28;20183;-72
2021/12/01 09:01:31;;;;;;;2.22;2.10;;;6.00;99.90;;;;;;4993849;28;20178;-73
2021/12/01 09:03:56;;;;;;;2.30;2.20;;;6.10;99.90;;;;;;4971114;28;20216;-72
2021/12/01 09:06:22;;;;;;;2.40;2.25;;;6.10;99.90;;;;;;4991081;28;20289;-73
2021/12/01 09:08:47;;;;;;;3.40;3.08;;;6.20;99.90;;;;;;4988355;28;20257;-72
2021/12/01 09:11:13;;;;;;;3.03;2.75;;;6.40;99.90;;;;;;4988575;28;20241;-73
2021/12/01 09:13:39;;;;;;;2.78;1.35;;;6.20;99.90;;;;;;4988481;28;21013;-71
2021/12/01 09:16:05;;;;;;;2.42;2.03;;;6.20;99.90;;;;;;4995097;28;20220;-72
2021/12/01 09:18:33;;;;;;;1.58;1.48;;;6.30;99.90;;;;;;5000050;28;20253;-72
2021/12/01 09:21:00;;;;;;;1.80;1.70;;;6.30;99.90;;;;;;4992457;28;20273;-71
2021/12/01 09:23:25;;;;;;;2.13;2.03;;;6.30;99.90;;;;;;4991956;28;20655;-74
2021/12/01 09:25:51;;;;;;;2.28;2.17;;;6.40;99.90;;;;;;4980856;28;20201;-76
2021/12/01 09:28:20;;;;;;;2.15;1.98;;;6.40;99.90;;;;;;4986847;28;20173;-73
2021/12/01 09:30:46;;;;;;;2.08;1.88;;;6.40;99.90;;;;;;4964779;28;20186;-74
2021/12/01 09:33:12;;;;;;;1.95;1.85;;;6.40;99.90;;;;;;4993327;28;20174;-74
2021/12/01 09:35:38;;;;;;;1.63;1.52;;;6.40;99.90;;;;;;4981523;28;20645;-74
2021/12/01 09:38:04;;;;;;;1.95;1.85;;;6.50;99.90;;;;;;4987840;28;20187;-72
2021/12/01 09:40:30;;;;;;;2.33;2.13;;;6.80;99.90;;;;;;5001634;28;20178;-73
2021/12/01 09:42:56;;;;;;;1.90;1.60;;;7.00;99.90;;;;;;4992407;28;20206;-73
2021/12/01 09:45:23;;;;;;;2.05;1.70;;;7.10;99.90;;;;;;4983085;28;20416;-73
2021/12/01 09:47:50;;;;;;;1.52;1.52;;;7.20;99.90;;;;;;4987953;28;20289;-72
2021/12/01 09:50:16;;;;;;;1.60;1.50;;;7.00;99.90;;;;;;4992763;28;20177;-74
2021/12/01 09:52:42;;;;;;;2.10;1.50;;;7.30;99.90;;;;;;4991653;28;20179;-76
2021/12/01 09:55:12;;;;;;;1.70;1.60;;;7.40;99.90;;;;;;4997459;28;20196;-76
2021/12/01 09:57:37;;;;;;;2.10;1.77;;;7.50;99.90;;;;;;4991695;28;20227;-74
2021/12/01 10:00:05;;;;;;;1.77;1.67;;;7.70;99.90;;;;;;4987053;28;20174;-74
2021/12/01 10:02:30;;;;;;;1.25;1.25;;;8.00;99.90;;;;;;4986278;28;20605;-74
2021/12/01 10:04:56;;;;;;;1.50;1.45;;;8.10;99.90;;;;;;4990385;28;20181;-74
2021/12/01 10:07:24;;;;;;;1.33;1.33;;;7.80;99.90;;;;;;4985340;28;20202;-74
2021/12/01 10:09:56;;;;;;;1.48;1.38;;;8.10;99.90;;;;;;4975195;28;20162;-74
2021/12/01 10:12:23;;;;;;;1.10;1.10;;;8.30;99.90;;;;;;4987968;28;20170;-74
2021/12/01 10:14:51;;;;;;;0.90;0.90;;;8.40;99.90;;;;;;4989652;28;20521;-75
2021/12/01 10:17:35;;;;;;;1.38;1.38;;;8.70;99.90;;;;;;4974676;28;20202;-80
2021/12/01 10:20:16;;;;;;;1.55;1.45;;;8.80;99.90;;;;;;4987278;28;20652;-75
2021/12/01 10:23:08;;;;;;;1.33;1.33;;;9.10;99.90;;;;;;4978679;28;20216;-75
2021/12/01 10:25:34;;;;;;;0.88;0.88;;;9.40;99.90;;;;;;4989846;28;20169;-75
2021/12/01 10:28:00;;;;;;;1.10;1.10;;;9.60;99.90;;;;;;4989124;28;20284;-75
2021/12/01 10:30:55;;;;;;;1.10;1.02;;;9.60;99.90;;;;;;4974831;28;20182;-74
2021/12/01 10:33:20;;;;;;;1.30;1.30;;;9.90;99.90;;;;;;4980402;28;20196;-73
2021/12/01 10:35:46;;;;;;;1.85;1.45;;;9.80;99.90;;;;;;4989146;28;20205;-75
2021/12/01 10:38:13;;;;;;;1.13;1.13;;;9.70;99.90;;;;;;4991680;28;20189;-75
2021/12/01 10:40:40;;;;;;;1.20;1.20;;;9.50;99.90;;;;;;4988940;28;20182;-73
2021/12/01 10:43:15;;;;;;;1.30;1.20;;;9.30;99.90;;;;;;4988453;28;20199;-74
2021/12/01 10:45:45;;;;;;;1.27;1.05;;;9.20;99.90;;;;;;4992287;28;20621;-74
2021/12/01 10:48:22;;;;;;;1.40;1.30;;;9.10;99.90;;;;;;4988631;28;20740;-74
2021/12/01 10:50:48;;;;;;;0.80;0.80;;;8.90;99.90;;;;;;4986210;28;20186;-74
2021/12/01 10:53:19;;;;;;;1.20;1.20;;;8.60;99.90;;;;;;4989230;28;20190;-76
2021/12/01 10:55:50;;;;;;;1.30;1.30;;;8.60;99.90;;;;;;4987012;28;20190;-76
2021/12/01 10:58:17;;;;;;;1.67;1.50;;;8.70;99.90;;;;;;4987656;28;20181;-75
2021/12/01 11:00:48;;;;;;;1.60;1.50;;;8.70;99.90;;;;;;4981179;28;20257;-74
2021/12/01 11:03:24;;;;;;;1.08;0.98;;;8.70;99.90;;;;;;4990017;28;20245;-74
2021/12/01 11:05:55;;;;;;;1.35;1.00;;;8.50;99.90;;;;;;4988728;28;20197;-75
2021/12/01 11:08:27;;;;;;;1.45;1.35;;;8.40;99.90;;;;;;4985941;28;20210;-75
2021/12/01 11:10:58;;;;;;;2.28;1.20;;;8.30;99.90;;;;;;4986625;28;20182;-74
2021/12/01 11:13:24;;;;;;;0.90;0.90;;;8.10;99.90;;;;;;4986407;28;20183;-74
2021/12/01 11:15:55;;;;;;;1.00;1.00;;;8.00;99.90;;;;;;4974172;28;20237;-74
2021/12/01 11:18:26;;;;;;;1.50;1.20;;;7.80;99.90;;;;;;4990786;28;20186;-74
2021/12/01 11:20:57;;;;;;;0.80;0.80;;;7.80;99.90;;;;;;4984744;28;20193;-74
2021/12/01 11:23:32;;;;;;;1.13;0.90;;;7.70;99.90;;;;;;4988429;28;20727;-76
2021/12/01 11:26:04;;;;;;;0.90;0.90;;;7.60;99.90;;;;;;4987453;28;20563;-73
2021/12/01 11:28:32;;;;;;;0.90;0.90;;;7.70;99.90;;;;;;4985716;28;20228;-74
2021/12/01 11:31:01;;;;;;;1.38;1.27;;;7.80;99.90;;;;;;4980894;28;20178;-74
2021/12/01 11:33:28;;;;;;;0.80;0.80;;;7.70;99.90;;;;;;4986585;28;20182;-75
2021/12/01 11:35:59;;;;;;;1.80;1.70;;;7.80;99.90;;;;;;4985222;28;20238;-74
2021/12/01 11:38:26;;;;;;;1.13;1.10;;;7.90;99.90;;;;;;4984239;28;20193;-74
2021/12/01 11:40:52;;;;;;;0.73;0.73;;;8.10;99.90;;;;;;4980499;28;20182;-75
2021/12/01 11:43:22;;;;;;;0.82;0.82;;;8.10;99.90;;;;;;4981858;28;20198;-74
2021/12/01 11:45:48;;;;;;;0.88;0.88;;;8.10;99.90;;;;;;4985221;28;20202;-75
2021/12/01 11:48:17;;;;;;;1.45;1.38;;;7.90;99.90;;;;;;4988527;28;20186;-76
2021/12/01 11:51:15;;;;;;;2.38;1.77;;;7.90;99.90;;;;;;4970104;28;20201;-76
2021/12/01 11:53:51;;;;;;;1.20;1.20;;;8.00;99.90;;;;;;4969426;28;20201;-75
2021/12/01 11:56:19;;;;;;;1.40;1.40;;;8.10;99.90;;;;;;4990879;28;20198;-75
2021/12/01 11:58:51;;;;;;;1.92;1.83;;;7.90;99.90;;;;;;4993125;28;20252;-75
2021/12/01 12:01:22;;;;;;;1.10;1.10;;;7.90;99.90;;;;;;4995353;28;20185;-75
2021/12/01 12:03:54;;;;;;;1.30;1.20;;;7.90;99.90;;;;;;4991993;28;20217;-76
2021/12/01 12:06:31;;;;;;;0.88;0.88;;;8.10;99.90;;;;;;4995592;28;20256;-76
2021/12/01 12:08:58;;;;;;;3.42;2.40;;;8.00;99.90;;;;;;4991438;28;20181;-74
2021/12/01 12:11:40;;;;;;;2.08;1.88;;;8.00;99.90;;;;;;4986241;28;20629;-74
2021/12/01 12:14:12;;;;;;;1.90;1.60;;;8.00;99.90;;;;;;4986062;28;20640;-74
2021/12/01 12:16:39;;;;;;;8.18;3.92;;;8.10;99.90;;;;;;4989569;28;20248;-74
2021/12/01 12:19:06;;;;;;;3.17;2.33;;;8.00;99.90;;;;;;4987519;28;20196;-74
2021/12/01 12:24:03;;;;;;;2.35;1.60;;;8.20;99.90;;;;;;4986418;28;20276;-74
2021/12/01 12:26:44;;;;;;;3.83;1.58;;;8.40;99.90;;;;;;4983916;28;20197;-74
2021/12/01 12:29:16;;;;;;;1.73;1.63;;;8.40;99.90;;;;;;4985512;28;20178;-75
2021/12/01 12:31:44;;;;;;;1.20;1.10;;;8.50;99.90;;;;;;4970073;28;20170;-73
2021/12/01 12:34:29;;;;;;;4.03;1.50;;;8.50;99.90;;;;;;4986622;28;20185;-74
2021/12/01 12:36:57;;;;;;;1.60;1.13;;;8.50;99.90;;;;;;4987878;28;20194;-72
2021/12/01 12:39:28;;;;;;;0.70;0.70;;;8.60;99.90;;;;;;4988771;28;20232;-73
2021/12/01 12:41:54;;;;;;;0.80;0.80;;;8.50;99.90;;;;;;4993733;28;20616;-73
2021/12/01 12:44:38;;;;;;;0.80;0.80;;;8.50;99.90;;;;;;4995416;28;20253;-73
2021/12/01 12:47:12;;;;;;;1.02;1.00;;;8.50;99.90;;;;;;4989047;28;20685;-73
2021/12/01 12:49:46;;;;;;;0.85;0.85;;;8.40;99.90;;;;;;5000233;28;20185;-74
2021/12/01 12:52:43;;;;;;;0.77;0.77;;;8.40;99.90;;;;;;4971873;28;20193;-71
2021/12/01 12:55:21;;;;;;;1.60;1.50;;;8.50;99.90;;;;;;4994212;28;20249;-72
2021/12/01 12:57:48;;;;;;;1.55;1.02;;;8.60;99.90;;;;;;4993032;28;20805;-71
2021/12/01 13:00:29;;;;;;;1.00;1.00;;;8.60;99.90;;;;;;4986345;28;20174;-72
2021/12/01 13:03:15;;;;;;;0.75;0.75;;;8.80;99.90;;;;;;4984348;28;20234;-74
2021/12/01 13:05:41;;;;;;;0.60;0.60;;;8.70;99.90;;;;;;4987643;28;20230;-74
2021/12/01 13:08:35;;;;;;;1.10;1.00;;;8.90;99.90;;;;;;4988619;28;20178;-72
2021/12/01 13:11:02;;;;;;;1.00;1.00;;;9.00;99.90;;;;;;4989205;28;20206;-74